Terminal Aerodrome Forecast
Issued by NWS Cleveland, OH

Home | Current Version | Previous Version | Graphics & Text | Print | Product List | Glossary On
Versions: 1 2 3 4 5 6 7 8 9 10 11 12 13 14 15 16 17 18 19
000
FTUS41 KCLE 042323
TAFERI
TAF
KERI 042323Z 0500/0524 10004KT P6SM OVC100
     FM050200 14010KT P6SM SCT015 OVC035
      TEMPO 0502/0504 4SM -RASN BR OVC015
     FM050400 16012KT 5SM -RASN BR OVC015
      TEMPO 0504/0508 3SM -RASN BR OVC008
     FM050800 21012KT P6SM VCSH OVC015
     FM051400 26012KT P6SM OVC025
     FM052000 25007KT P6SM OVC035=

USA.gov is the U.S. government's official web portal to all federal, state and local government web resources and services.